Погода Сарандина 2 недели

Парана, Бразилия

19 июня-02 июля
  • 19июня
    Сегодня
    +18°
    +30°
    Ясно и безоблачно
    ВремяПогодаТемператураВлажностьДавлениеВетер, м/сВероятность осадков
    00:00Ясно и безоблачно+21°C42 %719 мм3.7 м/с5 %
    03:00Ясно и безоблачно+21°C45 %719 мм3.4 м/с5 %
    06:00Ясно и безоблачно+19°C52 %719 мм2.8 м/с5 %
    09:00Ясно и безоблачно+22°C43 %722 мм3.5 м/с5 %
    12:00Ясно и безоблачно+27°C31 %722 мм4.9 м/с5 %
    15:00Ясно и безоблачно+29°C28 %720 мм2.6 м/с5 %
    18:00Ясно и безоблачно+25°C45 %720 мм2.5 м/с5 %
    21:00Ясно и безоблачно+23°C49 %721 мм2.0 м/с5 %
  • 20июня
    Четверг
    +18°
    +31°
    Ясно и безоблачно
    ВремяПогодаТемператураВлажностьДавлениеВетер, м/сВероятность осадков
    00:00Ясно и безоблачно+22°C48 %721 мм3.0 м/с5 %
    03:00Облачно с прояснениями+20°C50 %720 мм3.2 м/с5 %
    06:00Небольшая облачность+19°C51 %720 мм3.3 м/с5 %
    09:00Облачно с прояснениями+23°C43 %722 мм2.9 м/с5 %
    12:00Ясно и безоблачно+30°C24 %723 мм3.8 м/с5 %
    15:00Ясно и безоблачно+30°C23 %721 мм2.3 м/с5 %
    18:00Ясно и безоблачно+25°C35 %721 мм2.3 м/с5 %
    21:00Ясно и безоблачно+23°C40 %721 мм1.9 м/с5 %
  • 21июня
    Пятница
    +20°
    +30°
    Небольшая облачность
    ВремяПогодаТемператураВлажностьДавлениеВетер, м/сВероятность осадков
    00:00Ясно и безоблачно+23°C39 %721 мм4.2 м/с5 %
    03:00Практически безоблачно+21°C44 %720 мм3.8 м/с5 %
    06:00Небольшая облачность+19°C48 %720 мм4.1 м/с5 %
    09:00Облачно с прояснениями+22°C41 %721 мм4.4 м/с5 %
    12:00Небольшая облачность+28°C28 %722 мм5.1 м/с5 %
    15:00Небольшая облачность+29°C26 %720 мм2.7 м/с5 %
    18:00Практически безоблачно+24°C40 %719 мм2.1 м/с5 %
    21:00Небольшая облачность+23°C38 %720 мм2.2 м/с5 %
  • 22июня
    Суббота
    +19°
    +31°
    Небольшая облачность
    ВремяПогодаТемператураВлажностьДавлениеВетер, м/сВероятность осадков
    00:00Облачно с прояснениями+23°C39 %720 мм4.3 м/с5 %
    03:00Облачно с прояснениями+21°C45 %719 мм4.2 м/с5 %
    06:00Небольшая облачность+21°C44 %719 мм4.6 м/с5 %
    09:00Небольшая облачность+23°C43 %720 мм4.2 м/с5 %
    12:00Облачно с прояснениями+29°C34 %720 мм5.3 м/с5 %
    15:00Небольшая облачность+31°C29 %718 мм3.0 м/с5 %
    18:00Облачно с прояснениями+26°C40 %718 мм1.9 м/с5 %
    21:00Облачно с прояснениями+24°C43 %718 мм2.1 м/с5 %
  • 23июня
    Воскресенье
    +21°
    +33°
    Ясно и безоблачно
    ВремяПогодаТемператураВлажностьДавлениеВетер, м/сВероятность осадков
    00:00Практически безоблачно+23°C45 %719 мм3.0 м/с5 %
    03:00Ясно и безоблачно+21°C49 %718 мм3.1 м/с5 %
    06:00Ясно и безоблачно+20°C54 %718 мм3.1 м/с5 %
    09:00Ясно и безоблачно+24°C45 %720 мм3.6 м/с5 %
    12:00Ясно и безоблачно+30°C32 %720 мм4.8 м/с5 %
    15:00Ясно и безоблачно+32°C29 %718 мм3.0 м/с5 %
    18:00Ясно и безоблачно+28°C38 %718 мм2.2 м/с5 %
    21:00Ясно и безоблачно+26°C46 %718 мм2.1 м/с5 %
Мы используем cookies
Соглашаюсь